Neshkoro, Wisconsin
Current Conditions -  °F | °C
As of 7:56 PM on Thursday 20 Nov 2014 (Local Time) from KY50 Reporting Station
Clear Clear  
Wind Chill: -1°   Ceiling: Unl
Heat Index:   Visibility: 10mi
Dew Point: -3°   Wind: 6mph
Humidity: 58%   Direction: 300°WNW
Pressure: 30.2"   Gusts: NA
Location:  43.97°N, 89.22°W
Report Text: KY50 210156Z AUTO 30005KT 10SM CLR M13/M19 A3020 RMK AO2 TSNO T11271194 SLP243
Loading
Personal Weather Stations






























Interactive Weather Map New forecast layout! Learn more

10-Day Weather Forecast

Advertisements
Track Severe Weather on mobile